sensor_id;sensor_type;location;lat;lon;timestamp;P1;durP1;ratioP1;P2;durP2;ratioP2
75054;SDS011;63636;44.746;10.488;2022-12-28T00:00:00;183.90;;;47.42;;
75054;SDS011;63636;44.746;10.488;2022-12-28T00:02:25;177.70;;;46.15;;
75054;SDS011;63636;44.746;10.488;2022-12-28T00:04:51;197.70;;;47.30;;
75054;SDS011;63636;44.746;10.488;2022-12-28T00:07:16;185.00;;;46.88;;
75054;SDS011;63636;44.746;10.488;2022-12-28T00:09:42;181.95;;;47.47;;
75054;SDS011;63636;44.746;10.488;2022-12-28T00:12:07;180.73;;;47.05;;
75054;SDS011;63636;44.746;10.488;2022-12-28T00:14:33;195.65;;;46.80;;
75054;SDS011;63636;44.746;10.488;2022-12-28T00:16:59;183.18;;;47.17;;
75054;SDS011;63636;44.746;10.488;2022-12-28T00:19:24;186.00;;;47.28;;
75054;SDS011;63636;44.746;10.488;2022-12-28T00:21:51;199.98;;;46.28;;
75054;SDS011;63636;44.746;10.488;2022-12-28T00:24:19;198.80;;;47.72;;
75054;SDS011;63636;44.746;10.488;2022-12-28T00:26:45;207.48;;;47.10;;
75054;SDS011;63636;44.746;10.488;2022-12-28T00:29:10;198.50;;;47.08;;
75054;SDS011;63636;44.746;10.488;2022-12-28T00:31:36;198.90;;;47.92;;
75054;SDS011;63636;44.746;10.488;2022-12-28T00:34:02;219.40;;;49.42;;
75054;SDS011;63636;44.746;10.488;2022-12-28T00:36:27;194.15;;;47.78;;
75054;SDS011;63636;44.746;10.488;2022-12-28T00:38:53;197.00;;;46.70;;
75054;SDS011;63636;44.746;10.488;2022-12-28T00:41:19;197.95;;;46.08;;
75054;SDS011;63636;44.746;10.488;2022-12-28T00:43:44;182.18;;;46.25;;
75054;SDS011;63636;44.746;10.488;2022-12-28T00:46:10;173.02;;;45.00;;
75054;SDS011;63636;44.746;10.488;2022-12-28T00:48:36;184.25;;;47.53;;
75054;SDS011;63636;44.746;10.488;2022-12-28T00:51:05;174.77;;;45.42;;
75054;SDS011;63636;44.746;10.488;2022-12-28T00:53:31;178.95;;;46.55;;
75054;SDS011;63636;44.746;10.488;2022-12-28T00:56:05;187.55;;;46.08;;
75054;SDS011;63636;44.746;10.488;2022-12-28T00:58:30;172.00;;;46.38;;
75054;SDS011;63636;44.746;10.488;2022-12-28T01:00:56;187.27;;;45.63;;
75054;SDS011;63636;44.746;10.488;2022-12-28T01:03:22;197.30;;;46.40;;
75054;SDS011;63636;44.746;10.488;2022-12-28T01:05:50;203.55;;;49.83;;
75054;SDS011;63636;44.746;10.488;2022-12-28T01:08:15;179.82;;;46.42;;
75054;SDS011;63636;44.746;10.488;2022-12-28T01:10:41;202.18;;;47.70;;
75054;SDS011;63636;44.746;10.488;2022-12-28T01:13:06;186.98;;;47.33;;
75054;SDS011;63636;44.746;10.488;2022-12-28T01:15:33;204.70;;;49.20;;
75054;SDS011;63636;44.746;10.488;2022-12-28T01:17:58;192.98;;;48.47;;
75054;SDS011;63636;44.746;10.488;2022-12-28T01:20:25;195.55;;;50.05;;
75054;SDS011;63636;44.746;10.488;2022-12-28T01:22:51;193.25;;;48.58;;
75054;SDS011;63636;44.746;10.488;2022-12-28T01:25:16;181.38;;;46.58;;
75054;SDS011;63636;44.746;10.488;2022-12-28T01:27:42;180.88;;;46.90;;
75054;SDS011;63636;44.746;10.488;2022-12-28T01:30:09;197.32;;;47.30;;
75054;SDS011;63636;44.746;10.488;2022-12-28T01:32:36;199.93;;;48.63;;
75054;SDS011;63636;44.746;10.488;2022-12-28T01:35:02;206.90;;;48.60;;
75054;SDS011;63636;44.746;10.488;2022-12-28T01:37:27;215.07;;;50.72;;
75054;SDS011;63636;44.746;10.488;2022-12-28T01:39:53;207.68;;;49.67;;
75054;SDS011;63636;44.746;10.488;2022-12-28T01:42:18;218.85;;;50.15;;
75054;SDS011;63636;44.746;10.488;2022-12-28T01:44:45;227.45;;;51.88;;
75054;SDS011;63636;44.746;10.488;2022-12-28T01:47:12;232.13;;;51.00;;
75054;SDS011;63636;44.746;10.488;2022-12-28T01:54:34;267.23;;;53.00;;
75054;SDS011;63636;44.746;10.488;2022-12-28T01:57:01;293.00;;;55.47;;
75054;SDS011;63636;44.746;10.488;2022-12-28T01:59:28;266.10;;;54.47;;
75054;SDS011;63636;44.746;10.488;2022-12-28T02:01:54;300.42;;;55.33;;
75054;SDS011;63636;44.746;10.488;2022-12-28T02:04:21;262.17;;;53.30;;
75054;SDS011;63636;44.746;10.488;2022-12-28T02:06:50;220.77;;;51.33;;
75054;SDS011;63636;44.746;10.488;2022-12-28T02:09:37;211.73;;;49.80;;
75054;SDS011;63636;44.746;10.488;2022-12-28T02:12:03;225.20;;;50.33;;
75054;SDS011;63636;44.746;10.488;2022-12-28T02:14:29;188.52;;;48.05;;
75054;SDS011;63636;44.746;10.488;2022-12-28T02:16:55;180.48;;;47.00;;
75054;SDS011;63636;44.746;10.488;2022-12-28T02:19:24;165.20;;;45.10;;
75054;SDS011;63636;44.746;10.488;2022-12-28T02:27:26;161.75;;;44.88;;
75054;SDS011;63636;44.746;10.488;2022-12-28T02:38:06;173.77;;;45.80;;
75054;SDS011;63636;44.746;10.488;2022-12-28T02:40:37;182.93;;;46.40;;
75054;SDS011;63636;44.746;10.488;2022-12-28T02:43:04;175.45;;;46.78;;
75054;SDS011;63636;44.746;10.488;2022-12-28T02:45:38;157.48;;;44.55;;
75054;SDS011;63636;44.746;10.488;2022-12-28T02:48:22;147.90;;;43.40;;
75054;SDS011;63636;44.746;10.488;2022-12-28T02:56:20;130.02;;;41.63;;
75054;SDS011;63636;44.746;10.488;2022-12-28T03:06:39;136.82;;;43.03;;
75054;SDS011;63636;44.746;10.488;2022-12-28T03:09:27;136.32;;;42.17;;
75054;SDS011;63636;44.746;10.488;2022-12-28T03:12:00;132.70;;;40.72;;
75054;SDS011;63636;44.746;10.488;2022-12-28T03:14:46;133.48;;;41.25;;
75054;SDS011;63636;44.746;10.488;2022-12-28T03:17:12;136.50;;;43.03;;
75054;SDS011;63636;44.746;10.488;2022-12-28T03:19:59;134.85;;;41.65;;
75054;SDS011;63636;44.746;10.488;2022-12-28T03:22:45;129.60;;;41.22;;
75054;SDS011;63636;44.746;10.488;2022-12-28T03:25:32;139.65;;;42.58;;
75054;SDS011;63636;44.746;10.488;2022-12-28T03:31:10;167.55;;;42.97;;
75054;SDS011;63636;44.746;10.488;2022-12-28T03:33:44;173.80;;;44.25;;
75054;SDS011;63636;44.746;10.488;2022-12-28T03:36:18;177.10;;;46.63;;
75054;SDS011;63636;44.746;10.488;2022-12-28T03:41:29;153.05;;;43.42;;
75054;SDS011;63636;44.746;10.488;2022-12-28T03:44:14;169.98;;;45.25;;
75054;SDS011;63636;44.746;10.488;2022-12-28T03:49:07;147.50;;;42.58;;
75054;SDS011;63636;44.746;10.488;2022-12-28T03:51:33;150.77;;;42.53;;
75054;SDS011;63636;44.746;10.488;2022-12-28T03:54:06;146.32;;;40.83;;
75054;SDS011;63636;44.746;10.488;2022-12-28T03:56:32;134.40;;;41.58;;
75054;SDS011;63636;44.746;10.488;2022-12-28T03:59:00;136.50;;;41.70;;
75054;SDS011;63636;44.746;10.488;2022-12-28T04:01:35;134.95;;;40.05;;
75054;SDS011;63636;44.746;10.488;2022-12-28T04:04:00;125.25;;;40.28;;
75054;SDS011;63636;44.746;10.488;2022-12-28T04:06:26;132.10;;;40.28;;
75054;SDS011;63636;44.746;10.488;2022-12-28T04:08:52;122.82;;;39.33;;
75054;SDS011;63636;44.746;10.488;2022-12-28T04:11:19;112.95;;;38.75;;
75054;SDS011;63636;44.746;10.488;2022-12-28T04:13:50;119.25;;;38.05;;
75054;SDS011;63636;44.746;10.488;2022-12-28T04:16:17;150.95;;;42.17;;
75054;SDS011;63636;44.746;10.488;2022-12-28T04:18:43;180.85;;;45.28;;
75054;SDS011;63636;44.746;10.488;2022-12-28T04:21:09;198.70;;;46.08;;
75054;SDS011;63636;44.746;10.488;2022-12-28T04:23:37;197.25;;;47.45;;
75054;SDS011;63636;44.746;10.488;2022-12-28T04:26:14;186.18;;;45.67;;
75054;SDS011;63636;44.746;10.488;2022-12-28T04:28:42;167.20;;;43.42;;
75054;SDS011;63636;44.746;10.488;2022-12-28T04:31:27;156.77;;;43.10;;
75054;SDS011;63636;44.746;10.488;2022-12-28T04:33:59;170.43;;;43.92;;
75054;SDS011;63636;44.746;10.488;2022-12-28T04:36:27;149.65;;;43.30;;
75054;SDS011;63636;44.746;10.488;2022-12-28T04:38:54;144.85;;;41.33;;
75054;SDS011;63636;44.746;10.488;2022-12-28T04:41:19;155.95;;;43.58;;
75054;SDS011;63636;44.746;10.488;2022-12-28T04:43:45;163.55;;;42.85;;
75054;SDS011;63636;44.746;10.488;2022-12-28T04:46:12;150.95;;;43.85;;
75054;SDS011;63636;44.746;10.488;2022-12-28T04:48:38;146.98;;;42.92;;
75054;SDS011;63636;44.746;10.488;2022-12-28T04:51:37;151.38;;;42.38;;
75054;SDS011;63636;44.746;10.488;2022-12-28T04:53:56;150.25;;;41.97;;
75054;SDS011;63636;44.746;10.488;2022-12-28T04:56:21;138.63;;;40.20;;
75054;SDS011;63636;44.746;10.488;2022-12-28T04:58:48;132.45;;;39.63;;
75054;SDS011;63636;44.746;10.488;2022-12-28T05:01:17;128.70;;;36.67;;
75054;SDS011;63636;44.746;10.488;2022-12-28T05:03:43;129.98;;;40.38;;
75054;SDS011;63636;44.746;10.488;2022-12-28T05:06:10;133.80;;;40.28;;
75054;SDS011;63636;44.746;10.488;2022-12-28T05:08:36;136.50;;;39.65;;
75054;SDS011;63636;44.746;10.488;2022-12-28T05:11:03;142.52;;;41.28;;
75054;SDS011;63636;44.746;10.488;2022-12-28T05:13:28;129.00;;;38.97;;
75054;SDS011;63636;44.746;10.488;2022-12-28T05:15:54;126.72;;;38.30;;
75054;SDS011;63636;44.746;10.488;2022-12-28T05:18:20;128.07;;;38.38;;
75054;SDS011;63636;44.746;10.488;2022-12-28T05:20:45;116.53;;;39.05;;
75054;SDS011;63636;44.746;10.488;2022-12-28T05:23:11;132.23;;;40.30;;
75054;SDS011;63636;44.746;10.488;2022-12-28T05:25:36;137.27;;;40.38;;
75054;SDS011;63636;44.746;10.488;2022-12-28T05:28:02;163.07;;;41.30;;
75054;SDS011;63636;44.746;10.488;2022-12-28T05:30:28;142.20;;;41.90;;
75054;SDS011;63636;44.746;10.488;2022-12-28T05:32:53;141.52;;;39.90;;
75054;SDS011;63636;44.746;10.488;2022-12-28T05:35:19;113.88;;;35.60;;
75054;SDS011;63636;44.746;10.488;2022-12-28T05:37:44;119.70;;;36.65;;
75054;SDS011;63636;44.746;10.488;2022-12-28T05:40:10;137.95;;;38.38;;
75054;SDS011;63636;44.746;10.488;2022-12-28T05:42:36;113.82;;;35.30;;
75054;SDS011;63636;44.746;10.488;2022-12-28T05:45:01;122.55;;;38.40;;
75054;SDS011;63636;44.746;10.488;2022-12-28T05:47:27;136.70;;;37.83;;
75054;SDS011;63636;44.746;10.488;2022-12-28T05:49:52;148.57;;;40.17;;
75054;SDS011;63636;44.746;10.488;2022-12-28T05:52:18;139.48;;;39.75;;
75054;SDS011;63636;44.746;10.488;2022-12-28T05:54:43;119.90;;;37.10;;
75054;SDS011;63636;44.746;10.488;2022-12-28T05:57:09;109.22;;;35.95;;
75054;SDS011;63636;44.746;10.488;2022-12-28T05:59:34;105.35;;;35.22;;
75054;SDS011;63636;44.746;10.488;2022-12-28T06:02:00;122.13;;;36.92;;
75054;SDS011;63636;44.746;10.488;2022-12-28T06:04:26;126.47;;;36.83;;
75054;SDS011;63636;44.746;10.488;2022-12-28T06:06:51;134.70;;;39.30;;
75054;SDS011;63636;44.746;10.488;2022-12-28T06:09:18;119.68;;;37.67;;
75054;SDS011;63636;44.746;10.488;2022-12-28T06:11:44;125.57;;;37.60;;
75054;SDS011;63636;44.746;10.488;2022-12-28T06:14:10;114.32;;;36.83;;
75054;SDS011;63636;44.746;10.488;2022-12-28T06:16:37;107.80;;;35.83;;
75054;SDS011;63636;44.746;10.488;2022-12-28T06:19:04;117.43;;;37.47;;
75054;SDS011;63636;44.746;10.488;2022-12-28T06:21:30;112.57;;;36.55;;
75054;SDS011;63636;44.746;10.488;2022-12-28T06:23:57;114.45;;;36.97;;
75054;SDS011;63636;44.746;10.488;2022-12-28T06:26:23;115.47;;;37.35;;
75054;SDS011;63636;44.746;10.488;2022-12-28T06:28:48;110.93;;;36.97;;
75054;SDS011;63636;44.746;10.488;2022-12-28T06:31:15;114.25;;;37.20;;
75054;SDS011;63636;44.746;10.488;2022-12-28T06:33:41;99.95;;;35.38;;
75054;SDS011;63636;44.746;10.488;2022-12-28T06:36:40;97.45;;;34.67;;
75054;SDS011;63636;44.746;10.488;2022-12-28T06:38:59;102.05;;;34.10;;
75054;SDS011;63636;44.746;10.488;2022-12-28T06:41:25;92.60;;;33.90;;
75054;SDS011;63636;44.746;10.488;2022-12-28T06:43:50;94.88;;;33.70;;
75054;SDS011;63636;44.746;10.488;2022-12-28T06:46:17;111.72;;;36.45;;
75054;SDS011;63636;44.746;10.488;2022-12-28T06:48:42;101.68;;;33.65;;
75054;SDS011;63636;44.746;10.488;2022-12-28T06:53:40;92.07;;;34.65;;
75054;SDS011;63636;44.746;10.488;2022-12-28T06:56:12;89.30;;;32.05;;
75054;SDS011;63636;44.746;10.488;2022-12-28T06:58:47;92.93;;;33.50;;
75054;SDS011;63636;44.746;10.488;2022-12-28T07:01:16;84.85;;;29.38;;
75054;SDS011;63636;44.746;10.488;2022-12-28T07:03:42;77.95;;;28.02;;
75054;SDS011;63636;44.746;10.488;2022-12-28T07:06:08;79.78;;;29.10;;
75054;SDS011;63636;44.746;10.488;2022-12-28T07:08:35;85.20;;;29.15;;
75054;SDS011;63636;44.746;10.488;2022-12-28T07:11:05;85.25;;;29.02;;
75054;SDS011;63636;44.746;10.488;2022-12-28T07:13:30;75.95;;;28.05;;
75054;SDS011;63636;44.746;10.488;2022-12-28T07:15:59;77.00;;;28.65;;
75054;SDS011;63636;44.746;10.488;2022-12-28T07:18:25;77.00;;;27.95;;
75054;SDS011;63636;44.746;10.488;2022-12-28T07:20:56;76.88;;;27.40;;
75054;SDS011;63636;44.746;10.488;2022-12-28T07:23:22;77.82;;;28.13;;
75054;SDS011;63636;44.746;10.488;2022-12-28T07:25:47;81.45;;;29.85;;
75054;SDS011;63636;44.746;10.488;2022-12-28T07:28:13;95.65;;;30.90;;
75054;SDS011;63636;44.746;10.488;2022-12-28T07:30:38;82.78;;;29.20;;
75054;SDS011;63636;44.746;10.488;2022-12-28T07:33:04;88.20;;;29.77;;
75054;SDS011;63636;44.746;10.488;2022-12-28T07:35:29;94.32;;;30.58;;
75054;SDS011;63636;44.746;10.488;2022-12-28T07:37:55;105.50;;;31.80;;
75054;SDS011;63636;44.746;10.488;2022-12-28T07:40:20;82.50;;;29.67;;
75054;SDS011;63636;44.746;10.488;2022-12-28T07:42:46;82.47;;;29.33;;
75054;SDS011;63636;44.746;10.488;2022-12-28T07:45:11;86.28;;;29.65;;
75054;SDS011;63636;44.746;10.488;2022-12-28T07:47:37;96.30;;;30.35;;
75054;SDS011;63636;44.746;10.488;2022-12-28T07:50:03;85.85;;;30.85;;
75054;SDS011;63636;44.746;10.488;2022-12-28T07:52:29;79.35;;;27.63;;
75054;SDS011;63636;44.746;10.488;2022-12-28T07:54:55;86.07;;;30.10;;
75054;SDS011;63636;44.746;10.488;2022-12-28T07:57:20;84.00;;;29.48;;
75054;SDS011;63636;44.746;10.488;2022-12-28T07:59:46;75.50;;;27.38;;
75054;SDS011;63636;44.746;10.488;2022-12-28T08:02:11;79.00;;;28.13;;
75054;SDS011;63636;44.746;10.488;2022-12-28T08:04:37;77.53;;;28.17;;
75054;SDS011;63636;44.746;10.488;2022-12-28T08:07:02;76.18;;;27.92;;
75054;SDS011;63636;44.746;10.488;2022-12-28T08:09:28;82.60;;;27.77;;
75054;SDS011;63636;44.746;10.488;2022-12-28T08:11:53;88.25;;;29.60;;
75054;SDS011;63636;44.746;10.488;2022-12-28T08:14:19;85.57;;;30.33;;
75054;SDS011;63636;44.746;10.488;2022-12-28T08:16:44;87.75;;;28.52;;
75054;SDS011;63636;44.746;10.488;2022-12-28T08:19:10;85.85;;;28.55;;
75054;SDS011;63636;44.746;10.488;2022-12-28T08:21:37;77.72;;;28.02;;
75054;SDS011;63636;44.746;10.488;2022-12-28T08:24:03;92.03;;;30.52;;
75054;SDS011;63636;44.746;10.488;2022-12-28T08:26:33;88.88;;;29.92;;
75054;SDS011;63636;44.746;10.488;2022-12-28T08:29:00;95.38;;;29.15;;
75054;SDS011;63636;44.746;10.488;2022-12-28T08:31:27;88.28;;;29.63;;
75054;SDS011;63636;44.746;10.488;2022-12-28T08:33:53;84.72;;;28.83;;
75054;SDS011;63636;44.746;10.488;2022-12-28T08:36:20;70.68;;;27.30;;
75054;SDS011;63636;44.746;10.488;2022-12-28T08:38:46;67.72;;;25.60;;
75054;SDS011;63636;44.746;10.488;2022-12-28T08:41:12;69.93;;;25.65;;
75054;SDS011;63636;44.746;10.488;2022-12-28T08:43:38;70.20;;;26.02;;
75054;SDS011;63636;44.746;10.488;2022-12-28T08:46:09;64.80;;;25.42;;
75054;SDS011;63636;44.746;10.488;2022-12-28T08:48:35;68.50;;;25.70;;
75054;SDS011;63636;44.746;10.488;2022-12-28T08:51:08;69.68;;;26.90;;
75054;SDS011;63636;44.746;10.488;2022-12-28T08:53:34;68.72;;;26.20;;
75054;SDS011;63636;44.746;10.488;2022-12-28T08:56:07;69.15;;;26.23;;
75054;SDS011;63636;44.746;10.488;2022-12-28T08:58:38;74.65;;;26.73;;
75054;SDS011;63636;44.746;10.488;2022-12-28T09:01:11;74.35;;;26.88;;
75054;SDS011;63636;44.746;10.488;2022-12-28T09:06:03;69.25;;;25.17;;
75054;SDS011;63636;44.746;10.488;2022-12-28T09:08:29;72.10;;;26.05;;
75054;SDS011;63636;44.746;10.488;2022-12-28T09:10:57;68.75;;;25.45;;
75054;SDS011;63636;44.746;10.488;2022-12-28T09:13:22;62.13;;;24.08;;
75054;SDS011;63636;44.746;10.488;2022-12-28T09:15:58;66.47;;;25.10;;
75054;SDS011;63636;44.746;10.488;2022-12-28T09:18:23;60.92;;;25.27;;
75054;SDS011;63636;44.746;10.488;2022-12-28T09:20:49;61.30;;;24.20;;
75054;SDS011;63636;44.746;10.488;2022-12-28T09:23:14;62.80;;;24.55;;
75054;SDS011;63636;44.746;10.488;2022-12-28T09:25:40;67.22;;;25.95;;
75054;SDS011;63636;44.746;10.488;2022-12-28T09:28:05;64.80;;;24.58;;
75054;SDS011;63636;44.746;10.488;2022-12-28T09:30:31;68.53;;;26.80;;
75054;SDS011;63636;44.746;10.488;2022-12-28T09:32:56;69.05;;;25.88;;
75054;SDS011;63636;44.746;10.488;2022-12-28T09:35:41;64.38;;;26.17;;
75054;SDS011;63636;44.746;10.488;2022-12-28T09:38:06;65.70;;;25.10;;
75054;SDS011;63636;44.746;10.488;2022-12-28T09:40:33;65.20;;;25.63;;
75054;SDS011;63636;44.746;10.488;2022-12-28T09:42:58;61.50;;;24.88;;
75054;SDS011;63636;44.746;10.488;2022-12-28T09:45:24;58.75;;;23.65;;
75054;SDS011;63636;44.746;10.488;2022-12-28T09:47:50;60.47;;;24.02;;
75054;SDS011;63636;44.746;10.488;2022-12-28T09:55:18;62.33;;;23.27;;
75054;SDS011;63636;44.746;10.488;2022-12-28T09:57:45;60.92;;;24.30;;
75054;SDS011;63636;44.746;10.488;2022-12-28T10:00:15;56.10;;;23.45;;
75054;SDS011;63636;44.746;10.488;2022-12-28T10:02:41;58.67;;;22.83;;
75054;SDS011;63636;44.746;10.488;2022-12-28T10:05:09;57.65;;;22.10;;
75054;SDS011;63636;44.746;10.488;2022-12-28T10:07:36;58.83;;;22.08;;
75054;SDS011;63636;44.746;10.488;2022-12-28T10:10:02;56.08;;;21.70;;
75054;SDS011;63636;44.746;10.488;2022-12-28T10:12:28;58.70;;;22.85;;
75054;SDS011;63636;44.746;10.488;2022-12-28T10:14:53;55.38;;;21.55;;
75054;SDS011;63636;44.746;10.488;2022-12-28T10:17:21;62.08;;;23.33;;
75054;SDS011;63636;44.746;10.488;2022-12-28T10:19:49;54.78;;;23.02;;
75054;SDS011;63636;44.746;10.488;2022-12-28T10:22:17;65.45;;;23.58;;
75054;SDS011;63636;44.746;10.488;2022-12-28T10:24:43;61.45;;;22.90;;
75054;SDS011;63636;44.746;10.488;2022-12-28T10:27:12;67.10;;;24.38;;
75054;SDS011;63636;44.746;10.488;2022-12-28T10:29:39;68.85;;;24.17;;
75054;SDS011;63636;44.746;10.488;2022-12-28T10:32:06;63.05;;;23.50;;
75054;SDS011;63636;44.746;10.488;2022-12-28T10:34:37;66.40;;;23.08;;
75054;SDS011;63636;44.746;10.488;2022-12-28T10:37:17;67.57;;;24.30;;
75054;SDS011;63636;44.746;10.488;2022-12-28T10:39:47;70.63;;;26.08;;
75054;SDS011;63636;44.746;10.488;2022-12-28T10:42:22;71.10;;;25.10;;
75054;SDS011;63636;44.746;10.488;2022-12-28T10:44:48;78.43;;;25.50;;
75054;SDS011;63636;44.746;10.488;2022-12-28T10:47:15;75.78;;;25.67;;
75054;SDS011;63636;44.746;10.488;2022-12-28T10:49:47;73.78;;;24.98;;
75054;SDS011;63636;44.746;10.488;2022-12-28T10:54:38;77.35;;;25.02;;
75054;SDS011;63636;44.746;10.488;2022-12-28T10:57:04;70.00;;;24.88;;
75054;SDS011;63636;44.746;10.488;2022-12-28T10:59:30;79.30;;;25.55;;
75054;SDS011;63636;44.746;10.488;2022-12-28T11:02:12;73.15;;;24.83;;
75054;SDS011;63636;44.746;10.488;2022-12-28T11:04:51;77.80;;;25.67;;
75054;SDS011;63636;44.746;10.488;2022-12-28T11:09:42;81.18;;;25.13;;
75054;SDS011;63636;44.746;10.488;2022-12-28T11:12:24;80.72;;;26.48;;
75054;SDS011;63636;44.746;10.488;2022-12-28T11:14:50;80.60;;;26.30;;
75054;SDS011;63636;44.746;10.488;2022-12-28T11:17:20;82.85;;;27.10;;
75054;SDS011;63636;44.746;10.488;2022-12-28T11:19:47;82.07;;;30.05;;
75054;SDS011;63636;44.746;10.488;2022-12-28T11:22:14;98.85;;;31.52;;
75054;SDS011;63636;44.746;10.488;2022-12-28T11:24:41;82.18;;;27.08;;
75054;SDS011;63636;44.746;10.488;2022-12-28T11:27:11;82.28;;;28.60;;
75054;SDS011;63636;44.746;10.488;2022-12-28T11:29:41;91.70;;;31.92;;
75054;SDS011;63636;44.746;10.488;2022-12-28T11:32:31;85.38;;;27.98;;
75054;SDS011;63636;44.746;10.488;2022-12-28T11:34:55;84.78;;;28.55;;
75054;SDS011;63636;44.746;10.488;2022-12-28T11:37:21;88.38;;;28.38;;
75054;SDS011;63636;44.746;10.488;2022-12-28T11:39:48;92.82;;;28.95;;
75054;SDS011;63636;44.746;10.488;2022-12-28T11:44:56;88.82;;;27.58;;
75054;SDS011;63636;44.746;10.488;2022-12-28T11:47:23;94.40;;;27.58;;
75054;SDS011;63636;44.746;10.488;2022-12-28T11:49:55;101.40;;;34.45;;
75054;SDS011;63636;44.746;10.488;2022-12-28T11:52:44;99.18;;;34.67;;
75054;SDS011;63636;44.746;10.488;2022-12-28T11:57:54;96.43;;;33.50;;
75054;SDS011;63636;44.746;10.488;2022-12-28T12:02:56;106.38;;;36.42;;
75054;SDS011;63636;44.746;10.488;2022-12-28T12:08:01;104.20;;;36.20;;
75054;SDS011;63636;44.746;10.488;2022-12-28T12:10:28;101.50;;;36.90;;
75054;SDS011;63636;44.746;10.488;2022-12-28T12:12:55;95.57;;;36.22;;
75054;SDS011;63636;44.746;10.488;2022-12-28T12:15:22;97.00;;;34.95;;
75054;SDS011;63636;44.746;10.488;2022-12-28T12:17:58;116.47;;;36.70;;
75054;SDS011;63636;44.746;10.488;2022-12-28T12:20:27;106.78;;;37.30;;
75054;SDS011;63636;44.746;10.488;2022-12-28T12:23:01;106.78;;;36.55;;
75054;SDS011;63636;44.746;10.488;2022-12-28T12:25:39;105.03;;;36.00;;
75054;SDS011;63636;44.746;10.488;2022-12-28T12:28:07;103.95;;;36.33;;
75054;SDS011;63636;44.746;10.488;2022-12-28T12:30:35;106.93;;;36.20;;
75054;SDS011;63636;44.746;10.488;2022-12-28T12:33:02;105.60;;;37.97;;
75054;SDS011;63636;44.746;10.488;2022-12-28T12:35:45;101.88;;;37.40;;
75054;SDS011;63636;44.746;10.488;2022-12-28T12:53:50;99.55;;;36.22;;
75054;SDS011;63636;44.746;10.488;2022-12-28T12:56:25;93.38;;;35.13;;
75054;SDS011;63636;44.746;10.488;2022-12-28T13:01:28;94.13;;;33.53;;
75054;SDS011;63636;44.746;10.488;2022-12-28T13:03:57;94.60;;;34.80;;
75054;SDS011;63636;44.746;10.488;2022-12-28T13:06:27;98.50;;;35.92;;
75054;SDS011;63636;44.746;10.488;2022-12-28T13:09:01;100.50;;;36.53;;
75054;SDS011;63636;44.746;10.488;2022-12-28T13:11:30;106.32;;;36.85;;
75054;SDS011;63636;44.746;10.488;2022-12-28T13:13:59;104.78;;;36.17;;
75054;SDS011;63636;44.746;10.488;2022-12-28T13:16:26;103.80;;;35.92;;
75054;SDS011;63636;44.746;10.488;2022-12-28T13:18:54;93.75;;;34.78;;
75054;SDS011;63636;44.746;10.488;2022-12-28T13:21:20;103.35;;;36.80;;
75054;SDS011;63636;44.746;10.488;2022-12-28T13:23:46;103.20;;;36.88;;
75054;SDS011;63636;44.746;10.488;2022-12-28T13:26:12;106.82;;;36.35;;
75054;SDS011;63636;44.746;10.488;2022-12-28T13:28:43;93.63;;;34.55;;
75054;SDS011;63636;44.746;10.488;2022-12-28T13:31:14;104.13;;;36.78;;
75054;SDS011;63636;44.746;10.488;2022-12-28T13:33:41;98.10;;;35.80;;
75054;SDS011;63636;44.746;10.488;2022-12-28T13:36:14;100.00;;;36.80;;
75054;SDS011;63636;44.746;10.488;2022-12-28T13:38:40;101.20;;;36.20;;
75054;SDS011;63636;44.746;10.488;2022-12-28T13:41:08;100.32;;;36.83;;
75054;SDS011;63636;44.746;10.488;2022-12-28T13:46:18;101.88;;;35.70;;
75054;SDS011;63636;44.746;10.488;2022-12-28T13:48:45;100.05;;;36.45;;
75054;SDS011;63636;44.746;10.488;2022-12-28T13:51:12;91.05;;;28.63;;
75054;SDS011;63636;44.746;10.488;2022-12-28T13:53:39;98.10;;;29.98;;
75054;SDS011;63636;44.746;10.488;2022-12-28T13:56:07;86.32;;;27.52;;
75054;SDS011;63636;44.746;10.488;2022-12-28T13:58:37;87.40;;;27.35;;
75054;SDS011;63636;44.746;10.488;2022-12-28T14:01:06;86.32;;;27.77;;
75054;SDS011;63636;44.746;10.488;2022-12-28T14:03:35;86.47;;;26.60;;
75054;SDS011;63636;44.746;10.488;2022-12-28T14:06:01;93.93;;;28.65;;
75054;SDS011;63636;44.746;10.488;2022-12-28T14:08:28;89.95;;;27.92;;
75054;SDS011;63636;44.746;10.488;2022-12-28T14:10:57;91.38;;;28.48;;
75054;SDS011;63636;44.746;10.488;2022-12-28T14:13:23;82.28;;;27.55;;
75054;SDS011;63636;44.746;10.488;2022-12-28T14:15:49;85.90;;;28.20;;
75054;SDS011;63636;44.746;10.488;2022-12-28T14:18:15;91.75;;;28.77;;
75054;SDS011;63636;44.746;10.488;2022-12-28T14:20:45;92.28;;;28.50;;
75054;SDS011;63636;44.746;10.488;2022-12-28T14:23:23;81.78;;;27.70;;
75054;SDS011;63636;44.746;10.488;2022-12-28T14:25:50;89.28;;;28.48;;
75054;SDS011;63636;44.746;10.488;2022-12-28T14:28:18;80.38;;;27.73;;
75054;SDS011;63636;44.746;10.488;2022-12-28T14:30:49;89.80;;;28.48;;
75054;SDS011;63636;44.746;10.488;2022-12-28T14:33:19;84.40;;;27.20;;
75054;SDS011;63636;44.746;10.488;2022-12-28T14:35:53;89.43;;;29.60;;
75054;SDS011;63636;44.746;10.488;2022-12-28T14:38:19;86.35;;;28.73;;
75054;SDS011;63636;44.746;10.488;2022-12-28T14:40:56;84.40;;;27.33;;
75054;SDS011;63636;44.746;10.488;2022-12-28T14:43:24;86.05;;;26.98;;
75054;SDS011;63636;44.746;10.488;2022-12-28T14:45:50;85.10;;;28.10;;
75054;SDS011;63636;44.746;10.488;2022-12-28T14:48:23;88.25;;;28.75;;
75054;SDS011;63636;44.746;10.488;2022-12-28T14:50:57;82.70;;;28.50;;
75054;SDS011;63636;44.746;10.488;2022-12-28T14:53:23;87.15;;;28.33;;
75054;SDS011;63636;44.746;10.488;2022-12-28T14:58:27;87.88;;;27.10;;
75054;SDS011;63636;44.746;10.488;2022-12-28T15:00:55;91.50;;;28.10;;
75054;SDS011;63636;44.746;10.488;2022-12-28T15:03:21;83.80;;;26.63;;
75054;SDS011;63636;44.746;10.488;2022-12-28T15:05:48;81.50;;;26.50;;
75054;SDS011;63636;44.746;10.488;2022-12-28T15:08:15;89.30;;;28.52;;
75054;SDS011;63636;44.746;10.488;2022-12-28T15:10:50;87.30;;;27.73;;
75054;SDS011;63636;44.746;10.488;2022-12-28T15:13:16;80.38;;;26.45;;
75054;SDS011;63636;44.746;10.488;2022-12-28T15:15:42;77.93;;;25.98;;
75054;SDS011;63636;44.746;10.488;2022-12-28T15:18:08;81.13;;;26.45;;
75054;SDS011;63636;44.746;10.488;2022-12-28T15:20:34;84.80;;;27.33;;
75054;SDS011;63636;44.746;10.488;2022-12-28T15:23:02;75.70;;;26.52;;
75054;SDS011;63636;44.746;10.488;2022-12-28T15:25:28;79.53;;;26.90;;
75054;SDS011;63636;44.746;10.488;2022-12-28T15:27:54;86.05;;;26.10;;
75054;SDS011;63636;44.746;10.488;2022-12-28T15:30:19;85.13;;;26.40;;
75054;SDS011;63636;44.746;10.488;2022-12-28T15:32:45;80.43;;;26.55;;
75054;SDS011;63636;44.746;10.488;2022-12-28T15:35:11;79.32;;;26.77;;
75054;SDS011;63636;44.746;10.488;2022-12-28T15:37:37;84.90;;;28.08;;